Time;durP1;ratioP1;P1;durP2;ratioP2;P2;SDS_P1;SDS_P2;PMS_P1;PMS_P2;Temp;Humidity;BMP_temperature;BMP_pressure;BME280_temperature;BME280_humidity;BME280_pressure;Samples;Min_cycle;Max_cycle;Signal;HPM_P1;HPM_P2
2023/06/11 00:02:08;;;;;;;7.40;6.10;;;;;;;18.31;82.23;99294.73;107389;1254;71421;-40
2023/06/11 00:04:37;;;;;;;13.50;6.30;;;;;;;18.30;82.42;99291.95;107519;1251;60316;-41
2023/06/11 00:07:05;;;;;;;7.30;6.60;;;;;;;18.27;82.56;99296.98;107655;1256;60421;-40
2023/06/11 00:09:33;;;;;;;10.10;6.20;;;;;;;18.29;82.31;99295.00;107607;1251;73859;-40
2023/06/11 00:12:01;;;;;;;9.60;6.60;;;;;;;18.35;82.14;99295.71;107474;1254;66341;-40
2023/06/11 00:14:28;;;;;;;9.50;6.60;;;;;;;18.38;82.23;99298.41;107504;1254;72661;-40
2023/06/11 00:16:56;;;;;;;9.70;7.20;;;;;;;18.38;82.14;99298.02;107506;1254;60475;-40
2023/06/11 00:19:28;;;;;;;8.50;6.30;;;;;;;18.37;81.86;99300.15;107498;1253;60514;-40
2023/06/11 00:21:58;;;;;;;9.00;6.60;;;;;;;18.37;81.28;99301.02;107503;1252;73877;-40
2023/06/11 00:24:26;;;;;;;;;;;;;;;18.33;81.32;99301.15;107521;1254;67911;-40
2023/06/11 00:26:55;;;;;;;8.20;6.90;;;;;;;18.26;81.93;99306.48;107456;1254;72724;-40
2023/06/11 00:29:22;;;;;;;11.60;6.40;;;;;;;18.20;81.88;99305.95;107516;1251;60434;-40
2023/06/11 00:31:50;;;;;;;11.00;6.70;;;;;;;18.22;81.75;99309.12;107692;1251;60310;-40
2023/06/11 00:34:18;;;;;;;9.90;6.90;;;;;;;18.26;81.80;99310.56;107696;1256;74422;-40
2023/06/11 00:36:46;;;;;;;9.50;6.80;;;;;;;18.28;81.59;99308.66;107552;1252;67116;-40
2023/06/11 00:39:14;;;;;;;10.10;6.80;;;;;;;18.25;81.52;99304.08;107431;1254;72734;-40
2023/06/11 00:41:45;;;;;;;11.40;6.80;;;;;;;18.22;81.12;99304.65;107511;1253;60421;-39
2023/06/11 00:44:21;;;;;;;11.10;6.60;;;;;;;18.23;81.27;99305.42;107482;1254;60323;-39
2023/06/11 00:46:53;;;;;;;10.80;7.50;;;;;;;18.21;81.26;99303.72;107551;1254;74802;-40
2023/06/11 00:49:21;;;;;;;10.00;6.90;;;;;;;18.16;81.35;99301.20;107425;1254;67580;-40
2023/06/11 00:51:49;;;;;;;14.10;7.60;;;;;;;18.16;81.04;99305.13;107301;1254;71469;-40
2023/06/11 00:54:17;;;;;;;13.00;7.40;;;;;;;18.14;80.73;99308.15;107496;1254;60447;-40
2023/06/11 00:56:45;;;;;;;13.40;8.00;;;;;;;18.06;80.62;99311.44;107493;1257;60487;-40
2023/06/11 00:59:15;;;;;;;10.00;7.20;;;;;;;17.96;80.17;99309.70;107437;1251;72627;-40
2023/06/11 01:01:59;;;;;;;10.60;7.20;;;;;;;17.88;80.26;99301.88;107476;1253;67935;-40
2023/06/11 01:04:29;;;;;;;9.90;7.10;;;;;;;17.83;79.55;99310.15;107511;1254;72663;-40
2023/06/11 01:06:57;;;;;;;12.50;7.60;;;;;;;17.73;79.76;99318.41;107528;1254;60405;-40
2023/06/11 01:09:24;;;;;;;9.90;6.70;;;;;;;17.67;79.69;99328.02;107353;1254;58745;-40
2023/06/11 01:11:55;;;;;;;13.20;7.40;;;;;;;17.64;79.13;99327.27;107574;1254;73822;-40
2023/06/11 01:14:23;;;;;;;11.20;7.30;;;;;;;17.61;78.85;99330.84;107510;1253;66329;-40
2023/06/11 01:17:02;;;;;;;13.10;7.40;;;;;;;17.54;78.69;99330.95;107584;1254;71351;-40
2023/06/11 01:19:43;;;;;;;14.30;6.70;;;;;;;17.45;78.51;99331.20;107473;1254;60378;-40
2023/06/11 01:22:16;;;;;;;;;;;;;;;17.39;78.63;99332.34;107563;1254;60530;-40
2023/06/11 01:24:53;;;;;;;10.90;7.20;;;;;;;17.29;79.02;99335.88;107515;1254;72553;-40
2023/06/11 01:27:49;;;;;;;9.50;6.10;;;;;;;17.21;79.74;99336.81;107503;1259;66293;-40
2023/06/11 01:30:20;;;;;;;10.30;6.30;;;;;;;17.22;79.31;99335.95;107493;1254;71588;-40
2023/06/11 01:32:55;;;;;;;9.00;6.10;;;;;;;17.22;78.93;99333.59;107335;1254;60472;-40
2023/06/11 01:35:29;;;;;;;9.00;6.60;;;;;;;17.18;78.57;99332.60;107590;1253;60303;-40
2023/06/11 01:37:57;;;;;;;9.10;5.40;;;;;;;17.12;78.23;99334.77;107584;1254;73878;-40
2023/06/11 01:40:34;;;;;;;12.90;6.50;;;;;;;17.08;78.26;99335.74;107480;1254;66308;-40
2023/06/11 01:43:02;;;;;;;11.80;6.30;;;;;;;17.06;77.97;99340.52;107501;1253;72683;-40
2023/06/11 01:45:32;;;;;;;10.90;6.40;;;;;;;17.03;78.17;99339.77;107707;1256;59568;-40
2023/06/11 01:48:00;;;;;;;12.10;5.80;;;;;;;17.01;78.45;99344.16;107668;1254;60860;-40
2023/06/11 01:50:29;;;;;;;7.40;5.80;;;;;;;17.03;78.53;99345.71;107686;1254;73836;-40
2023/06/11 01:52:57;;;;;;;8.80;5.70;;;;;;;17.07;78.47;99350.77;107586;1252;67553;-40
2023/06/11 01:55:26;;;;;;;8.10;5.60;;;;;;;17.08;77.97;99352.73;107732;1254;72679;-40
2023/06/11 01:57:54;;;;;;;8.60;5.40;;;;;;;17.04;77.56;99349.78;107628;1256;60431;-40
2023/06/11 02:00:21;;;;;;;10.80;5.80;;;;;;;17.02;77.37;99348.85;107486;1254;60184;-40
2023/06/11 02:02:49;;;;;;;9.40;5.50;;;;;;;17.01;77.36;99349.80;107437;1254;71433;-40
2023/06/11 02:05:18;;;;;;;8.40;5.20;;;;;;;16.98;77.36;99347.41;107522;1254;70307;-39
2023/06/11 02:07:47;;;;;;;8.00;5.60;;;;;;;16.94;77.01;99352.43;107362;1254;72658;-40
2023/06/11 02:10:15;;;;;;;8.00;5.40;;;;;;;16.91;77.15;99351.98;107359;1254;61727;-40
2023/06/11 02:12:42;;;;;;;5.90;5.10;;;;;;;16.91;76.75;99348.85;107272;1254;60267;-40
2023/06/11 02:15:10;;;;;;;8.70;5.60;;;;;;;16.88;76.68;99351.30;107504;1254;73808;-40
2023/06/11 02:17:38;;;;;;;7.40;5.20;;;;;;;16.84;76.73;99352.42;107519;1253;67722;-40
2023/06/11 02:20:08;;;;;;;9.80;5.30;;;;;;;16.80;76.51;99351.18;107484;1254;72655;-40
2023/06/11 02:22:35;;;;;;;8.80;5.40;;;;;;;16.78;76.22;99349.73;107586;1254;60529;-40
2023/06/11 02:25:04;;;;;;;8.80;6.10;;;;;;;16.73;76.16;99348.73;107426;1258;60306;-40
2023/06/11 02:27:32;;;;;;;8.10;5.30;;;;;;;16.67;76.16;99349.01;107565;1254;74145;-40
2023/06/11 02:30:01;;;;;;;10.80;5.00;;;;;;;16.60;76.19;99350.21;107473;1259;66832;-40
2023/06/11 02:32:29;;;;;;;11.40;6.00;;;;;;;16.60;76.34;99354.36;107422;1254;71399;-40
2023/06/11 02:34:57;;;;;;;9.60;5.90;;;;;;;16.56;76.16;99355.91;107515;1254;60303;-40
2023/06/11 02:37:24;;;;;;;9.40;5.30;;;;;;;16.51;76.29;99354.30;107359;1254;60024;-40
2023/06/11 02:39:52;;;;;;;15.60;5.60;;;;;;;16.47;76.28;99358.39;107293;1253;73866;-40
2023/06/11 02:42:19;;;;;;;7.10;4.90;;;;;;;16.47;76.31;99359.88;107586;1254;66363;-40
2023/06/11 02:44:47;;;;;;;8.10;5.20;;;;;;;16.48;76.25;99358.23;107594;1254;71803;-40
2023/06/11 02:47:15;;;;;;;6.90;5.10;;;;;;;16.45;76.28;99358.09;107507;1257;60485;-40
2023/06/11 02:49:44;;;;;;;9.50;5.10;;;;;;;16.41;75.98;99357.25;107639;1256;60281;-40
2023/06/11 02:52:12;;;;;;;13.10;5.50;;;;;;;16.40;76.05;99359.61;107637;1254;74319;-40
2023/06/11 02:54:40;;;;;;;8.60;4.90;;;;;;;16.41;76.15;99359.77;107619;1257;67896;-40
2023/06/11 02:57:08;;;;;;;7.50;4.90;;;;;;;16.39;75.94;99363.90;107641;1256;72665;-40
2023/06/11 02:59:47;;;;;;;6.60;4.40;;;;;;;16.37;75.83;99360.39;107515;1256;60268;-40
2023/06/11 03:02:20;;;;;;;11.10;4.80;;;;;;;16.35;75.30;99362.98;107399;1252;59351;-47
2023/06/11 03:05:08;;;;;;;8.00;4.80;;;;;;;16.36;75.07;99362.04;107282;1253;73956;-41
2023/06/11 03:07:37;;;;;;;7.90;4.10;;;;;;;16.32;75.03;99365.19;107415;1254;66672;-41
2023/06/11 03:10:06;;;;;;;9.20;5.10;;;;;;;16.27;75.29;99362.94;107558;1259;72426;-39
2023/06/11 03:12:34;;;;;;;10.80;4.60;;;;;;;16.23;75.11;99363.81;107647;1257;60779;-40
2023/06/11 03:15:06;;;;;;;9.20;4.40;;;;;;;16.24;75.08;99367.48;107430;1254;60335;-40
2023/06/11 03:17:34;;;;;;;9.10;4.90;;;;;;;16.23;75.17;99366.86;107421;1254;73856;-40
2023/06/11 03:20:05;;;;;;;11.00;4.60;;;;;;;16.19;75.19;99368.36;107398;1254;67593;-41
2023/06/11 03:22:32;;;;;;;5.50;4.20;;;;;;;16.16;75.13;99364.48;107510;1254;72731;-40
2023/06/11 03:25:08;;;;;;;8.30;5.00;;;;;;;16.19;75.25;99363.44;107547;1259;60424;-40
2023/06/11 03:27:42;;;;;;;8.00;4.70;;;;;;;16.21;75.29;99365.77;107499;1259;60481;-40
2023/06/11 03:30:13;;;;;;;7.10;4.80;;;;;;;16.20;75.00;99367.42;107469;1259;74297;-40
2023/06/11 03:32:43;;;;;;;8.80;4.70;;;;;;;16.18;74.39;99368.05;107476;1259;67781;-40
2023/06/11 03:35:11;;;;;;;9.00;4.30;;;;;;;16.18;74.14;99366.27;107544;1254;71400;-40
2023/06/11 03:37:39;;;;;;;5.50;4.30;;;;;;;16.18;74.21;99370.00;107466;1260;60407;-40
2023/06/11 03:40:37;;;;;;;6.80;4.40;;;;;;;16.15;73.79;99364.94;107442;1255;60310;-40
2023/06/11 03:43:10;;;;;;;6.70;4.20;;;;;;;16.08;73.96;99370.43;107526;1253;74030;-40
2023/06/11 03:45:42;;;;;;;6.30;3.80;;;;;;;16.03;73.96;99372.86;107435;1257;67660;-40
2023/06/11 03:48:10;;;;;;;6.70;4.00;;;;;;;16.05;73.41;99373.72;107537;1255;71172;-39
2023/06/11 03:50:38;;;;;;;6.00;3.80;;;;;;;16.03;73.19;99376.46;107429;1254;60430;-39
2023/06/11 03:53:06;;;;;;;11.70;4.10;;;;;;;15.98;72.63;99384.60;107537;1254;60280;-39
2023/06/11 03:55:34;;;;;;;9.10;3.90;;;;;;;15.92;73.12;99383.69;107404;1254;72146;-39
2023/06/11 03:58:01;;;;;;;8.70;3.90;;;;;;;15.91;73.16;99383.14;107547;1259;66637;-40
2023/06/11 04:00:31;;;;;;;5.40;4.00;;;;;;;15.91;73.21;99379.63;107390;1254;71402;-40
2023/06/11 04:03:00;;;;;;;7.00;4.80;;;;;;;15.90;73.34;99382.13;107604;1256;60408;-39
2023/06/11 04:05:41;;;;;;;6.70;4.10;;;;;;;15.86;73.06;99378.54;107576;1254;60265;-39
2023/06/11 04:08:09;;;;;;;11.00;4.70;;;;;;;15.84;72.51;99369.48;107676;1254;73824;-39
2023/06/11 04:10:38;;;;;;;8.40;3.90;;;;;;;15.83;72.59;99370.27;107632;1252;66358;-39
2023/06/11 04:15:55;;;;;;;6.10;3.70;;;;;;;15.84;73.40;99377.36;104354;1290;600912;-40
2023/06/11 04:18:22;;;;;;;6.80;3.80;;;;;;;15.88;72.80;99377.05;106606;1270;60380;-39
2023/06/11 04:20:52;;;;;;;5.70;3.90;;;;;;;15.94;73.03;99386.17;106649;1264;59187;-39
2023/06/11 04:23:20;;;;;;;9.40;4.00;;;;;;;15.96;72.44;99389.06;106637;1267;71342;-39
2023/06/11 04:25:51;;;;;;;7.00;4.10;;;;;;;15.97;72.32;99390.85;106757;1267;66622;-39
2023/06/11 04:28:21;;;;;;;6.70;4.10;;;;;;;16.00;72.32;99392.56;106757;1265;71408;-40
2023/06/11 04:30:49;;;;;;;6.80;4.10;;;;;;;16.05;71.87;99397.08;106735;1264;59418;-40
2023/06/11 04:33:17;;;;;;;7.70;4.10;;;;;;;16.06;71.20;99394.11;106844;1265;59716;-39
2023/06/11 04:35:48;;;;;;;;;;;;;;;16.03;70.55;99398.02;106697;1264;72248;-39
2023/06/11 04:38:17;;;;;;;7.10;3.80;;;;;;;15.93;71.06;99400.16;107184;1256;67853;-39
2023/06/11 04:40:46;;;;;;;6.60;4.30;;;;;;;15.87;70.92;99403.38;107274;1256;71520;-39
2023/06/11 04:43:15;;;;;;;7.80;4.00;;;;;;;15.90;71.01;99405.41;107364;1254;60107;-40
2023/06/11 04:45:43;;;;;;;6.70;3.70;;;;;;;15.92;71.06;99404.39;107139;1259;59681;-41
2023/06/11 04:48:11;;;;;;;6.80;3.70;;;;;;;15.89;70.31;99403.84;107099;1260;72482;-40
2023/06/11 04:50:39;;;;;;;9.50;3.80;;;;;;;15.84;70.51;99406.81;107071;1258;67380;-40
2023/06/11 04:53:07;;;;;;;9.80;3.60;;;;;;;15.83;70.59;99408.30;107089;1259;72665;-40
2023/06/11 04:55:38;;;;;;;9.50;3.70;;;;;;;15.87;70.25;99412.04;108487;1257;60059;-41
2023/06/11 04:58:08;;;;;;;5.90;3.20;;;;;;;15.88;70.00;99415.87;107194;1260;59267;-40
2023/06/11 05:00:36;;;;;;;;;;;;;;;15.83;69.99;99424.01;107138;1261;73068;-40
2023/06/11 05:03:04;;;;;;;6.60;3.70;;;;;;;15.73;69.97;99427.38;107284;1260;67608;-40
2023/06/11 05:05:34;;;;;;;7.30;3.40;;;;;;;15.65;69.58;99437.68;107196;1257;71433;-40
2023/06/11 05:08:02;;;;;;;5.70;3.60;;;;;;;15.62;69.60;99435.98;109046;1257;58759;-41
2023/06/11 05:10:29;;;;;;;5.30;3.20;;;;;;;15.60;69.68;99443.53;108975;1256;58952;-39
2023/06/11 05:12:57;;;;;;;7.20;3.50;;;;;;;15.60;69.75;99446.02;108986;1256;71478;-39
2023/06/11 05:15:25;;;;;;;6.70;3.40;;;;;;;15.58;69.73;99445.73;108985;1256;68029;-39
2023/06/11 05:17:53;;;;;;;7.30;3.60;;;;;;;15.62;69.71;99448.14;108552;1257;72687;-39
2023/06/11 05:20:26;;;;;;;4.80;3.10;;;;;;;15.66;69.05;99453.46;108646;1258;60091;-39
2023/06/11 05:22:58;;;;;;;4.40;3.30;;;;;;;15.62;68.60;99451.36;107307;1257;59633;-39
2023/06/11 05:25:29;;;;;;;7.60;3.60;;;;;;;15.56;68.58;99454.16;107200;1260;71789;-40
2023/06/11 05:28:00;;;;;;;8.60;3.20;;;;;;;15.52;68.92;99459.23;107116;1263;66358;-40
2023/06/11 05:30:29;;;;;;;6.40;3.30;;;;;;;15.52;68.77;99459.23;107314;1258;72416;-40
2023/06/11 05:32:58;;;;;;;6.60;3.30;;;;;;;15.53;69.19;99458.52;107149;1257;59600;-42
2023/06/11 05:35:27;;;;;;;;;;;;;;;15.52;68.92;99464.70;107188;1257;60027;-40
2023/06/11 05:37:55;;;;;;;5.80;3.70;;;;;;;15.44;69.29;99466.54;107376;1257;73057;-40
2023/06/11 05:40:23;;;;;;;4.90;3.40;;;;;;;15.39;69.41;99472.39;107319;1257;66297;-39
2023/06/11 05:42:51;;;;;;;6.20;3.00;;;;;;;15.42;69.47;99468.64;107263;1257;72994;-39
2023/06/11 05:45:19;;;;;;;6.20;3.60;;;;;;;15.43;68.96;99468.26;107386;1257;59610;-39
2023/06/11 05:47:47;;;;;;;8.70;3.80;;;;;;;15.42;69.21;99479.42;107249;1257;59221;-39
2023/06/11 05:50:15;;;;;;;8.00;3.90;;;;;;;15.42;69.71;99474.34;107218;1258;73051;-40
2023/06/11 05:52:44;;;;;;;6.60;3.30;;;;;;;15.41;69.77;99478.79;107252;1260;67571;-39
2023/06/11 05:55:12;;;;;;;7.70;3.40;;;;;;;15.43;69.80;99478.86;107315;1259;72677;-40
2023/06/11 05:57:40;;;;;;;6.50;3.50;;;;;;;15.43;69.63;99471.45;107289;1260;60903;-40
2023/06/11 06:00:15;;;;;;;6.00;3.60;;;;;;;15.45;69.27;99476.14;107303;1257;60205;-39
2023/06/11 06:02:46;;;;;;;7.00;3.90;;;;;;;15.43;69.29;99479.34;107183;1257;71754;-39
2023/06/11 06:05:19;;;;;;;9.80;3.20;;;;;;;15.41;69.50;99482.30;107238;1258;66307;-39
2023/06/11 06:07:46;;;;;;;8.30;3.00;;;;;;;15.45;69.19;99476.77;107238;1257;71395;-39
2023/06/11 06:10:14;;;;;;;4.70;3.00;;;;;;;15.44;68.80;99476.06;107301;1257;59637;-40
2023/06/11 06:12:42;;;;;;;7.10;3.70;;;;;;;15.38;68.60;99477.85;107268;1257;59545;-39
2023/06/11 06:15:10;;;;;;;6.10;3.10;;;;;;;15.31;68.77;99478.07;107244;1257;73055;-39
2023/06/11 06:17:40;;;;;;;6.80;3.00;;;;;;;15.27;69.38;99477.20;107468;1258;66327;-39
2023/06/11 06:20:10;;;;;;;6.90;2.90;;;;;;;15.26;69.48;99477.59;107192;1258;73177;-40
2023/06/11 06:22:38;;;;;;;8.50;3.10;;;;;;;15.27;69.52;99473.92;107270;1257;59621;-40
2023/06/11 06:25:06;;;;;;;8.70;3.50;;;;;;;15.25;69.56;99474.95;107285;1257;59718;-40
2023/06/11 06:27:34;;;;;;;6.70;3.40;;;;;;;15.23;69.73;99475.95;107167;1257;73188;-39
2023/06/11 06:30:07;;;;;;;5.40;3.10;;;;;;;15.19;69.60;99468.15;107116;1258;67900;-40
2023/06/11 06:32:38;;;;;;;4.50;2.90;;;;;;;15.19;69.37;99470.86;107197;1257;72677;-40
2023/06/11 06:35:08;;;;;;;6.50;3.20;;;;;;;15.18;70.00;99469.79;107197;1258;59330;-39
2023/06/11 06:37:36;;;;;;;10.20;3.20;;;;;;;15.18;70.06;99474.69;107214;1262;60064;-40
2023/06/11 06:40:05;;;;;;;5.60;2.80;;;;;;;15.16;70.23;99468.20;107141;1257;73088;-39
2023/06/11 06:42:33;;;;;;;10.30;2.90;;;;;;;15.16;70.42;99473.52;107377;1254;65650;-39
2023/06/11 06:45:02;;;;;;;7.10;3.40;;;;;;;15.19;70.21;99476.17;107493;1254;72628;-39
2023/06/11 06:47:30;;;;;;;6.10;3.40;;;;;;;15.17;69.60;99476.02;107519;1255;59657;-39
2023/06/11 06:49:58;;;;;;;5.00;2.80;;;;;;;15.13;69.95;99480.15;107643;1254;59364;-39
2023/06/11 06:52:27;;;;;;;7.00;3.00;;;;;;;15.11;70.48;99483.48;107479;1254;71784;-39
2023/06/11 06:54:55;;;;;;;8.00;3.40;;;;;;;15.11;70.14;99488.72;107581;1254;67569;-39
2023/06/11 06:57:22;;;;;;;7.50;2.70;;;;;;;15.13;70.50;99488.17;107236;1256;71689;-39
2023/06/11 06:59:50;;;;;;;3.60;2.80;;;;;;;15.17;70.45;99490.21;107191;1257;60198;-39
2023/06/11 07:02:18;;;;;;;4.90;2.80;;;;;;;15.15;70.05;99491.15;107268;1255;59513;-40
2023/06/11 07:04:46;;;;;;;12.60;3.00;;;;;;;15.11;69.97;99492.85;107514;1254;73055;-39
2023/06/11 07:07:20;;;;;;;10.10;3.00;;;;;;;15.04;69.64;99492.29;107221;1256;67540;-42
2023/06/11 07:09:48;;;;;;;6.60;2.60;;;;;;;14.97;69.10;99490.16;107113;1257;72681;-40
2023/06/11 07:12:17;;;;;;;8.10;2.60;;;;;;;14.87;69.23;99495.89;107285;1257;61209;-40
2023/06/11 07:14:45;;;;;;;5.90;2.80;;;;;;;14.76;69.48;99489.92;106960;1256;59681;-40
2023/06/11 07:17:13;;;;;;;5.10;2.30;;;;;;;14.67;69.78;99492.15;107122;1257;74962;-40
2023/06/11 07:19:41;;;;;;;5.10;2.60;;;;;;;14.61;70.07;99488.54;107254;1260;66266;-40
2023/06/11 07:22:09;;;;;;;3.90;2.30;;;;;;;14.61;69.94;99488.54;107081;1257;73193;-40
2023/06/11 07:24:39;;;;;;;5.40;2.40;;;;;;;14.59;70.56;99488.53;106938;1257;59631;-41
2023/06/11 07:27:08;;;;;;;5.80;2.40;;;;;;;14.59;70.45;99489.53;107287;1256;59555;-40
2023/06/11 07:29:40;;;;;;;4.90;2.30;;;;;;;14.59;70.31;99488.75;107253;1260;73300;-48
2023/06/11 07:32:17;;;;;;;3.60;2.40;;;;;;;14.61;69.89;99489.55;107074;1257;70189;-40
2023/06/11 07:34:45;;;;;;;6.10;2.30;;;;;;;14.61;69.94;99486.44;107122;1257;72677;-40
2023/06/11 07:37:13;;;;;;;6.50;2.50;;;;;;;14.58;69.75;99491.48;107140;1258;59596;-40
2023/06/11 07:39:41;;;;;;;5.50;2.40;;;;;;;14.54;70.06;99490.14;107094;1258;59591;-40
2023/06/11 07:42:08;;;;;;;6.40;2.40;;;;;;;14.50;69.98;99487.47;107087;1259;73035;-40
2023/06/11 07:44:36;;;;;;;6.40;2.40;;;;;;;14.52;70.02;99488.41;107142;1256;66630;-40
2023/06/11 07:47:05;;;;;;;3.80;2.10;;;;;;;14.51;69.90;99487.23;107217;1257;72679;-39
2023/06/11 07:49:33;;;;;;;6.60;3.20;;;;;;;14.50;69.60;99493.55;107163;1256;59326;-39
2023/06/11 07:52:00;;;;;;;8.50;2.50;;;;;;;14.46;69.94;99495.64;107119;1256;59508;-41
2023/06/11 07:54:28;;;;;;;6.60;2.40;;;;;;;14.46;69.20;99489.23;107172;1260;71775;-41
2023/06/11 07:56:56;;;;;;;7.00;2.50;;;;;;;14.48;69.26;99496.34;107226;1257;67933;-39
2023/06/11 07:59:23;;;;;;;3.90;2.20;;;;;;;14.46;69.24;99494.86;107183;1256;72674;-39
2023/06/11 08:01:51;;;;;;;7.50;2.50;;;;;;;14.47;69.99;99497.66;107295;1257;59612;-39
2023/06/11 08:04:19;;;;;;;8.20;2.80;;;;;;;14.53;69.95;99501.91;107243;1256;60032;-39
2023/06/11 08:06:47;;;;;;;5.10;2.90;;;;;;;14.57;69.54;99498.49;107415;1256;73068;-39
2023/06/11 08:09:14;;;;;;;8.00;2.60;;;;;;;14.57;69.30;99504.34;107253;1258;65677;-39
2023/06/11 08:11:42;;;;;;;7.40;2.60;;;;;;;14.56;69.42;99501.06;107436;1256;72650;-39
2023/06/11 08:14:21;;;;;;;4.60;2.60;;;;;;;14.55;69.56;99502.23;107092;1257;60519;-40
2023/06/11 08:16:50;;;;;;;8.20;2.80;;;;;;;14.58;69.44;99506.54;107124;1257;59593;-40
2023/06/11 08:19:18;;;;;;;6.70;2.20;;;;;;;14.60;68.96;99503.97;107114;1256;74014;-39
2023/06/11 08:21:49;;;;;;;8.90;2.30;;;;;;;14.59;68.73;99508.64;107245;1256;67966;-39
2023/06/11 08:24:18;;;;;;;6.50;2.40;;;;;;;14.60;69.46;99510.52;107134;1256;71822;-39
2023/06/11 08:26:46;;;;;;;6.40;2.50;;;;;;;14.62;69.18;99513.26;107154;1257;61944;-39
2023/06/11 08:29:16;;;;;;;5.60;2.30;;;;;;;14.64;68.99;99513.42;107225;1256;60432;-39
2023/06/11 08:31:45;;;;;;;4.90;3.00;;;;;;;14.64;69.22;99517.95;107239;1256;72642;-41
2023/06/11 08:34:34;;;;;;;4.20;2.60;;;;;;;14.63;69.37;99511.63;107189;1256;66471;-40
2023/06/11 08:37:03;;;;;;;3.70;2.00;;;;;;;14.58;69.73;99507.46;107261;1257;71426;-40
2023/06/11 08:39:31;;;;;;;4.40;2.20;;;;;;;14.61;70.19;99505.69;107125;1256;60440;-40
2023/06/11 08:41:58;;;;;;;3.80;2.60;;;;;;;14.61;69.80;99506.09;107243;1259;60317;-39
2023/06/11 08:44:26;;;;;;;5.20;2.20;;;;;;;14.59;69.83;99504.04;107150;1260;73858;-40
2023/06/11 08:46:55;;;;;;;4.40;2.50;;;;;;;14.59;70.44;99508.41;107172;1256;66625;-40
2023/06/11 08:49:23;;;;;;;3.10;2.30;;;;;;;14.63;70.56;99508.51;107154;1256;72743;-40
2023/06/11 08:51:51;;;;;;;5.00;2.50;;;;;;;14.69;70.61;99507.52;107169;1256;60416;-40
2023/06/11 08:54:18;;;;;;;3.90;2.30;;;;;;;14.73;70.81;99507.62;107219;1255;60808;-40
2023/06/11 08:56:46;;;;;;;4.00;2.50;;;;;;;14.69;69.62;99515.02;107184;1256;73921;-40
2023/06/11 08:59:14;;;;;;;4.40;2.00;;;;;;;14.62;69.54;99516.69;107242;1256;66423;-40
2023/06/11 09:01:41;;;;;;;3.90;1.90;;;;;;;14.56;69.45;99515.95;107145;1255;71070;-39
2023/06/11 09:04:09;;;;;;;3.00;2.10;;;;;;;14.55;69.87;99522.81;107238;1258;60390;-40
2023/06/11 09:06:39;;;;;;;3.10;2.60;;;;;;;14.52;69.44;99524.13;107294;1257;59457;-40
2023/06/11 09:09:07;;;;;;;3.50;2.60;;;;;;;14.48;69.55;99529.77;106973;1256;73949;-40
2023/06/11 09:11:36;;;;;;;2.40;2.20;;;;;;;14.46;69.88;99528.06;107189;1256;67745;-40
2023/06/11 09:14:05;;;;;;;5.50;2.20;;;;;;;14.45;69.96;99531.01;107262;1256;73148;-40
2023/06/11 09:16:43;;;;;;;4.40;2.60;;;;;;;14.45;70.27;99531.48;107217;1257;60082;-40
2023/06/11 09:19:18;;;;;;;5.20;2.50;;;;;;;14.41;70.52;99525.84;107224;1256;59225;-40
2023/06/11 09:22:04;;;;;;;5.40;2.20;;;;;;;14.38;71.21;99529.72;107117;1256;72578;-39
2023/06/11 09:24:32;;;;;;;2.90;1.60;;;;;;;14.39;71.40;99532.30;107178;1256;66361;-40
2023/06/11 09:26:59;;;;;;;4.20;2.30;;;;;;;14.44;71.27;99535.52;107370;1256;72665;-40
2023/06/11 09:29:28;;;;;;;3.80;2.00;;;;;;;14.45;70.67;99534.84;107202;1256;60747;-40
2023/06/11 09:32:03;;;;;;;4.80;2.10;;;;;;;14.42;70.62;99534.66;108226;1257;60297;-40
2023/06/11 09:34:44;;;;;;;3.60;2.10;;;;;;;14.37;70.42;99527.70;107258;1257;74239;-40
2023/06/11 09:37:14;;;;;;;12.00;2.50;;;;;;;14.34;70.73;99530.75;107195;1256;67689;-39
2023/06/11 09:39:42;;;;;;;4.40;1.70;;;;;;;14.36;70.98;99538.97;107264;1256;72711;-40
2023/06/11 09:42:23;;;;;;;3.80;1.90;;;;;;;14.32;70.83;99542.45;107014;1256;60317;-40
2023/06/11 09:44:51;;;;;;;3.40;1.60;;;;;;;14.29;71.31;99544.52;107253;1256;59605;-40
2023/06/11 09:47:19;;;;;;;3.70;1.50;;;;;;;14.26;70.86;99543.27;107294;1256;75967;-40
2023/06/11 09:49:47;;;;;;;6.10;2.00;;;;;;;14.24;70.16;99543.87;107423;1254;67552;-40
2023/06/11 09:52:14;;;;;;;3.30;1.50;;;;;;;14.24;70.22;99542.68;107156;1257;71466;-40
2023/06/11 09:54:42;;;;;;;2.30;1.80;;;;;;;14.22;70.14;99543.30;107173;1255;60379;-40
2023/06/11 09:57:10;;;;;;;4.30;1.60;;;;;;;14.17;70.05;99541.64;107138;1256;60311;-40
2023/06/11 09:59:37;;;;;;;1.80;1.60;;;;;;;14.15;70.62;99545.28;107125;1256;73873;-40
2023/06/11 10:02:05;;;;;;;2.20;1.60;;;;;;;14.14;70.34;99539.19;107116;1256;67238;-40
2023/06/11 10:04:33;;;;;;;4.80;1.70;;;;;;;14.09;70.31;99539.46;107194;1256;71398;-40
2023/06/11 10:07:01;;;;;;;3.70;1.90;;;;;;;14.02;70.37;99539.12;107212;1256;60642;-40
2023/06/11 10:09:30;;;;;;;1.90;1.70;;;;;;;13.92;70.33;99536.53;107321;1256;60358;-40
2023/06/11 10:11:58;;;;;;;3.50;1.70;;;;;;;13.90;70.72;99536.27;107311;1260;73889;-40
2023/06/11 10:14:25;;;;;;;2.90;2.20;;;;;;;13.90;71.42;99540.41;107425;1256;67550;-39
2023/06/11 10:16:54;;;;;;;4.00;1.90;;;;;;;13.92;71.03;99534.81;107231;1256;72681;-40
2023/06/11 10:19:22;;;;;;;1.60;1.50;;;;;;;13.94;71.27;99536.39;107269;1256;61688;-39
2023/06/11 10:21:51;;;;;;;3.10;1.80;;;;;;;14.00;71.33;99535.11;107247;1256;60874;-40
2023/06/11 10:24:23;;;;;;;4.10;2.00;;;;;;;14.03;70.65;99537.48;107293;1257;73890;-39
2023/06/11 10:27:08;;;;;;;5.60;2.00;;;;;;;14.00;70.81;99538.85;107236;1256;67933;-40
2023/06/11 10:29:40;;;;;;;3.50;1.70;;;;;;;13.99;71.03;99543.75;107417;1256;71440;-40
2023/06/11 10:32:22;;;;;;;2.30;1.70;;;;;;;13.99;71.78;99541.26;107252;1260;60428;-39
2023/06/11 10:34:54;;;;;;;3.30;1.70;;;;;;;14.07;72.12;99540.63;107419;1256;60488;-39
2023/06/11 10:37:41;;;;;;;5.70;2.20;;;;;;;14.09;71.70;99542.20;107277;1256;73847;-39
2023/06/11 10:40:10;;;;;;;3.50;1.90;;;;;;;14.10;71.91;99542.89;107289;1256;67617;-40
2023/06/11 10:42:39;;;;;;;4.30;2.10;;;;;;;14.08;71.82;99544.91;107326;1256;72760;-40
2023/06/11 10:45:17;;;;;;;3.40;2.00;;;;;;;14.08;71.79;99543.59;107310;1256;60377;-40
2023/06/11 10:47:46;;;;;;;2.90;2.20;;;;;;;14.05;71.05;99543.02;107283;1256;60002;-40
2023/06/11 10:50:15;;;;;;;4.50;2.10;;;;;;;13.99;71.00;99551.84;107434;1256;73881;-40
2023/06/11 10:52:47;;;;;;;5.50;2.30;;;;;;;13.88;71.14;99552.00;107289;1255;66797;-40
2023/06/11 10:55:17;;;;;;;4.50;2.00;;;;;;;13.78;71.34;99556.02;107396;1259;71483;-40
2023/06/11 10:57:44;;;;;;;7.10;2.40;;;;;;;13.75;71.72;99554.21;107321;1255;61201;-40
2023/06/11 11:00:13;;;;;;;4.80;2.30;;;;;;;13.79;72.37;99559.54;107449;1256;60400;-40
2023/06/11 11:02:41;;;;;;;3.30;2.40;;;;;;;13.78;71.98;99555.34;107330;1256;72709;-40
2023/06/11 11:05:09;;;;;;;4.10;2.20;;;;;;;13.71;71.67;99558.61;107261;1255;67744;-40
2023/06/11 11:07:38;;;;;;;3.40;1.90;;;;;;;13.62;71.73;99556.65;107293;1256;71410;-40
2023/06/11 11:10:06;;;;;;;3.20;2.10;;;;;;;13.60;72.35;99564.49;107388;1256;60470;-40
2023/06/11 11:12:55;;;;;;;4.60;2.10;;;;;;;13.61;72.39;99565.67;107293;1256;60306;-40
2023/06/11 11:15:23;;;;;;;2.50;1.80;;;;;;;13.60;72.33;99565.27;107232;1255;73906;-40
2023/06/11 11:17:50;;;;;;;3.80;2.00;;;;;;;13.55;72.15;99561.71;107224;1256;66775;-40
2023/06/11 11:20:19;;;;;;;5.00;2.30;;;;;;;13.55;72.10;99565.00;107265;1256;72686;-40
2023/06/11 11:22:52;;;;;;;4.20;2.20;;;;;;;13.52;71.94;99565.20;107246;1255;60562;-40
2023/06/11 11:25:21;;;;;;;3.90;2.10;;;;;;;13.49;72.48;99573.81;107307;1255;59264;-40
2023/06/11 11:27:48;;;;;;;6.40;2.30;;;;;;;13.45;71.74;99569.41;107302;1258;72570;-39
2023/06/11 11:30:17;;;;;;;2.60;2.10;;;;;;;13.43;72.16;99571.26;107242;1256;67764;-39
2023/06/11 11:32:45;;;;;;;5.50;2.00;;;;;;;13.44;72.10;99577.72;107177;1256;72721;-39
2023/06/11 11:35:16;;;;;;;3.10;2.20;;;;;;;13.41;71.24;99576.28;107129;1257;60304;-39
2023/06/11 11:37:45;;;;;;;3.10;2.20;;;;;;;13.35;71.88;99577.71;107211;1256;60089;-39
2023/06/11 11:40:12;;;;;;;5.90;2.20;;;;;;;13.28;72.02;99584.70;107165;1256;73894;-39